Terminal Aerodrome Forecast
Issued by NWS Charleston, WV

Current Version | Previous Version | Graphics & Text | Print | Product List | Glossary On
Versions: 1 2 3 4 5 6 7 8 9 10 11 12 13 14 15 16 17 18 19 20 21 22
000
FTUS41 KRLX 251518 AAA
TAFBKW
TAF AMD
KBKW 251518Z 2515/2612 23010KT P6SM BKN018 OVC024
     FM252100 24011G17KT 6SM SHRA OVC012
     FM260300 28012G18KT P6SM SHRA OVC009=

USA.gov is the U.S. government's official web portal to all federal, state and local government web resources and services.